This is the latest recevied weather packets stored in our database for station/object CE1RLP-34. If no packets are shown the sender has not sent any weather packets the latest 10 day(s).
| Time | Temp. | Humidity | Pressure | Rain* | Wind** | Luminosity | Snow |
|---|---|---|---|---|---|---|---|
| 1777811699 | 18.33° C | 5% | 1083.4 hPa | - | - | - | - |
| 1777810797 | 17.22° C | 5% | 1083.3 hPa | - | - | - | - |
| 1777809024 | 15° C | 5% | 1083 hPa | - | - | - | - |
| 1777808124 | 14.44° C | 6% | 1083.1 hPa | - | - | - | - |
| 1777807221 | 13.89° C | 7% | 1083 hPa | - | - | - | - |
| 1777806321 | 13.89° C | 7% | 1082.8 hPa | - | - | - | - |
| 1777805419 | 13.89° C | 8% | 1082.7 hPa | - | - | - | - |
| 1777804519 | 13.89° C | 8% | 1082.5 hPa | - | - | - | - |
| 1777803617 | 13.89° C | 8% | 1082.5 hPa | - | - | - | - |
| 1777802716 | 13.89° C | 7% | 1082.5 hPa | - | - | - | - |
| 1777801814 | 13.89° C | 8% | 1082.4 hPa | - | - | - | - |
| 1777800914 | 13.89° C | 8% | 1082.4 hPa | - | - | - | - |
| 1777800011 | 13.89° C | 7% | 1082.4 hPa | - | - | - | - |
| 1777799111 | 13.89° C | 7% | 1082.5 hPa | - | - | - | - |
| 1777798209 | 13.89° C | 7% | 1082.4 hPa | - | - | - | - |
| 1777797309 | 13.89° C | 8% | 1082.5 hPa | - | - | - | - |
| 1777796406 | 13.89° C | 7% | 1082.5 hPa | - | - | - | - |
| 1777795506 | 13.89° C | 8% | 1082.6 hPa | - | - | - | - |
| 1777794604 | 14.44° C | 8% | 1082.6 hPa | - | - | - | - |
| 1777793704 | 14.44° C | 8% | 1082.8 hPa | - | - | - | - |
| 1777792801 | 13.89° C | 8% | 1082.8 hPa | - | - | - | - |
| 1777791901 | 14.44° C | 8% | 1082.9 hPa | - | - | - | - |
| 1777790999 | 14.44° C | 8% | 1083.1 hPa | - | - | - | - |
| 1777790099 | 14.44° C | 9% | 1083.2 hPa | - | - | - | - |
| 1777789196 | 13.89° C | 8% | 1082.9 hPa | - | - | - | - |
* Rain since midnight (hover to see other rain measurements)
** Current wind speed in m/s (hover to see current wind gust speed)